createdAt,value
2023-01-10T00:01:39.580Z,-26.62
2023-01-10T00:07:01.773Z,-26.53
2023-01-10T00:12:42.360Z,-25.80
2023-01-10T00:18:04.603Z,-25.67
2023-01-10T00:23:27.612Z,-26.21
2023-01-10T00:28:49.914Z,-26.09
2023-01-10T00:34:11.976Z,-26.32
2023-01-10T00:39:33.521Z,-26.43
2023-01-10T00:44:55.524Z,-26.45
2023-01-10T00:50:19.442Z,-26.53
2023-01-10T00:55:41.479Z,-26.47
2023-01-10T01:01:03.418Z,-26.71
2023-01-10T01:06:28.786Z,-26.91
2023-01-10T01:11:51.282Z,-27.19
2023-01-10T01:17:13.904Z,-27.09
2023-01-10T01:22:38.581Z,-26.48
2023-01-10T01:28:00.675Z,-26.28
2023-01-10T01:33:26.181Z,-26.49
2023-01-10T01:38:50.255Z,-26.70
2023-01-10T01:44:19.380Z,-27.04
2023-01-10T01:49:45.540Z,-27.14
2023-01-10T01:55:11.099Z,-27.19
2023-01-10T02:00:36.006Z,-27.00
2023-01-10T02:06:30.426Z,-26.54
2023-01-10T02:12:20.963Z,-26.01
2023-01-10T02:17:43.319Z,-25.82
2023-01-10T02:23:49.810Z,-25.74
2023-01-10T02:29:20.653Z,-25.66
2023-01-10T02:35:04.983Z,-25.70
2023-01-10T02:41:02.746Z,-25.61
2023-01-10T02:46:30.054Z,-25.69
2023-01-10T02:51:51.740Z,-25.76
2023-01-10T02:57:37.862Z,-25.88
2023-01-10T03:03:27.803Z,-25.87
2023-01-10T03:09:29.332Z,-25.83
2023-01-10T03:14:53.372Z,-25.77
2023-01-10T03:20:15.522Z,-25.76
2023-01-10T03:25:40.873Z,-25.70
2023-01-10T03:31:15.349Z,-25.43
2023-01-10T03:36:50.870Z,-25.38
2023-01-10T03:42:26.464Z,-25.45
2023-01-10T03:47:52.616Z,-25.42
2023-01-10T03:53:16.264Z,-25.74
2023-01-10T03:58:38.353Z,-25.42
2023-01-10T04:04:06.919Z,-25.48
2023-01-10T04:09:29.706Z,-25.73
2023-01-10T04:14:52.028Z,-25.85
2023-01-10T04:20:14.404Z,-25.93
2023-01-10T04:25:37.089Z,-25.98
2023-01-10T04:30:59.635Z,-26.09
2023-01-10T04:36:22.582Z,-26.08
2023-01-10T04:41:45.223Z,-26.31
2023-01-10T04:47:07.233Z,-26.25
2023-01-10T04:52:31.062Z,-26.16
2023-01-10T04:57:55.841Z,-26.01
2023-01-10T05:03:20.871Z,-25.88
2023-01-10T05:08:43.643Z,-25.84
2023-01-10T05:14:08.195Z,-25.68
2023-01-10T05:19:30.014Z,-25.77
2023-01-10T05:24:54.547Z,-25.64
2023-01-10T05:30:17.988Z,-25.60
2023-01-10T05:35:45.731Z,-25.69
2023-01-10T05:41:11.700Z,-25.61
2023-01-10T05:46:39.281Z,-25.59
2023-01-10T05:52:01.839Z,-25.57
2023-01-10T05:57:25.176Z,-25.64
2023-01-10T06:02:47.766Z,-25.70
2023-01-10T06:08:09.907Z,-25.58
2023-01-10T06:13:32.200Z,-25.47
2023-01-10T06:18:53.762Z,-25.33
2023-01-10T06:24:15.594Z,-25.30
2023-01-10T06:29:37.820Z,-25.03
2023-01-10T06:35:00.091Z,-24.90
2023-01-10T06:40:22.670Z,-24.97
2023-01-10T06:45:44.801Z,-25.02
2023-01-10T06:51:07.155Z,-24.70
2023-01-10T06:56:29.329Z,-24.53
2023-01-10T07:01:51.446Z,-24.35
2023-01-10T07:07:13.233Z,-24.57
2023-01-10T07:12:35.345Z,-24.58
2023-01-10T07:18:01.283Z,-24.40
2023-01-10T07:23:23.216Z,-24.31
2023-01-10T07:28:46.469Z,-24.06
2023-01-10T07:34:08.701Z,-23.94
2023-01-10T07:39:30.752Z,-23.55
2023-01-10T07:44:53.023Z,-23.35
2023-01-10T07:50:18.032Z,-23.26
2023-01-10T07:55:40.344Z,-23.06
2023-01-10T08:01:04.558Z,-22.93
2023-01-10T08:06:26.662Z,-22.79
2023-01-10T08:11:48.814Z,-22.55
2023-01-10T08:17:10.763Z,-22.47
2023-01-10T08:22:32.904Z,-22.24
2023-01-10T08:27:54.893Z,-22.15
2023-01-10T08:33:16.864Z,-21.91
2023-01-10T08:38:38.520Z,-21.60
2023-01-10T08:44:01.313Z,-21.60
2023-01-10T08:49:23.292Z,-21.44
2023-01-10T08:54:45.562Z,-21.37
2023-01-10T09:00:08.925Z,-21.52
2023-01-10T09:05:31.160Z,-21.39
2023-01-10T09:10:56.235Z,-21.25
2023-01-10T09:16:26.061Z,-21.23
2023-01-10T09:21:48.377Z,-20.99
2023-01-10T09:27:13.064Z,-20.87
2023-01-10T09:32:35.117Z,-20.76
2023-01-10T09:38:01.986Z,-21.06
2023-01-10T09:43:48.624Z,-20.97
2023-01-10T09:49:48.339Z,-20.92
2023-01-10T09:55:24.235Z,-20.93
2023-01-10T10:01:03.406Z,-20.75
2023-01-10T10:06:28.327Z,-20.44
2023-01-10T10:12:04.093Z,-20.60
2023-01-10T10:17:28.589Z,-20.52
2023-01-10T10:23:27.533Z,-20.36
2023-01-10T10:29:07.003Z,-20.35
2023-01-10T10:34:42.624Z,-20.13
2023-01-10T10:40:06.732Z,-20.02
2023-01-10T10:45:35.884Z,-19.91
2023-01-10T10:51:09.495Z,-19.74
2023-01-10T10:56:31.574Z,-19.56
2023-01-10T11:01:54.334Z,-19.63
2023-01-10T11:07:19.142Z,-19.55
2023-01-10T11:12:48.673Z,-19.39
2023-01-10T11:18:23.068Z,-19.39
2023-01-10T11:23:53.130Z,-19.12
2023-01-10T11:29:43.478Z,-19.03
2023-01-10T11:35:18.344Z,-19.10
2023-01-10T11:40:53.753Z,-18.87
2023-01-10T11:46:28.047Z,-18.70
2023-01-10T11:51:53.945Z,-18.76
2023-01-10T11:57:25.956Z,-18.75
2023-01-10T12:02:48.734Z,-18.56
2023-01-10T12:08:26.463Z,-18.53
2023-01-10T12:13:59.644Z,-18.39
2023-01-10T12:19:21.966Z,-18.47
2023-01-10T12:25:08.121Z,-18.37
2023-01-10T12:30:37.560Z,-18.38
2023-01-10T12:36:14.985Z,-18.40
2023-01-10T12:41:58.424Z,-18.24
2023-01-10T12:47:36.048Z,-18.24
2023-01-10T12:53:08.094Z,-18.16
2023-01-10T12:58:40.447Z,-18.15
2023-01-10T13:04:13.466Z,-18.19
2023-01-10T13:09:42.400Z,-18.29
2023-01-10T13:15:39.920Z,-18.17
2023-01-10T13:21:15.565Z,-17.98
2023-01-10T13:26:53.833Z,-17.91
2023-01-10T13:32:31.944Z,-18.01
2023-01-10T13:37:57.772Z,-17.88
2023-01-10T13:43:35.271Z,-17.79
2023-01-10T13:49:00.907Z,-17.74
2023-01-10T13:54:28.893Z,-17.86
2023-01-10T14:00:21.717Z,-17.57
2023-01-10T14:05:49.350Z,-17.68
2023-01-10T14:11:16.893Z,-17.47
2023-01-10T14:16:45.609Z,-17.40
2023-01-10T14:22:09.414Z,-17.37
2023-01-10T14:27:45.637Z,-17.36
2023-01-10T14:33:25.723Z,-17.44
2023-01-10T14:38:50.983Z,-17.29
2023-01-10T14:44:51.093Z,-17.30
2023-01-10T14:50:37.226Z,-17.32
2023-01-10T14:56:05.305Z,-17.28
2023-01-10T15:01:34.025Z,-17.37
2023-01-10T15:07:11.623Z,-17.48
2023-01-10T15:12:37.911Z,-17.22
2023-01-10T15:18:01.636Z,-17.21
2023-01-10T15:23:27.730Z,-17.38
2023-01-10T15:29:13.748Z,-17.20
2023-01-10T15:34:35.703Z,-17.31
2023-01-10T15:39:59.131Z,-17.34
2023-01-10T15:45:38.283Z,-17.37
2023-01-10T15:51:16.446Z,-17.29
2023-01-10T15:56:48.065Z,-17.37
2023-01-10T16:02:14.036Z,-17.33
2023-01-10T16:07:43.062Z,-17.43
2023-01-10T16:13:27.698Z,-17.35
2023-01-10T16:18:50.331Z,-17.37
2023-01-10T16:24:22.999Z,-17.40
2023-01-10T16:29:45.124Z,-17.26
2023-01-10T16:35:08.264Z,-17.25
2023-01-10T16:40:42.779Z,-17.20
2023-01-10T16:46:05.527Z,-17.20
2023-01-10T16:51:30.865Z,-17.25
2023-01-10T16:56:53.033Z,-17.21
2023-01-10T17:02:22.453Z,-17.13
2023-01-10T17:07:44.453Z,-17.16
2023-01-10T17:13:09.404Z,-17.11
2023-01-10T17:18:31.391Z,-17.06
2023-01-10T17:23:53.462Z,-17.04
2023-01-10T17:29:15.700Z,-17.06
2023-01-10T17:34:38.877Z,-16.99
2023-01-10T17:46:11.553Z,-17.04
2023-01-10T17:51:53.397Z,-17.17
2023-01-10T17:57:15.601Z,-16.93
2023-01-10T18:02:38.231Z,-16.94
2023-01-10T18:08:01.924Z,-17.15
2023-01-10T18:13:25.268Z,-16.96
2023-01-10T18:18:52.771Z,-16.99
2023-01-10T18:24:24.053Z,-16.97
2023-01-10T18:29:46.317Z,-17.04
2023-01-10T18:35:09.370Z,-16.94
2023-01-10T18:40:32.894Z,-16.83
2023-01-10T18:46:28.064Z,-17.04
2023-01-10T18:51:53.028Z,-17.02
2023-01-10T18:57:15.859Z,-16.93
2023-01-10T19:02:38.197Z,-16.78
2023-01-10T19:08:03.617Z,-16.70
2023-01-10T19:13:25.523Z,-16.69
2023-01-10T19:18:59.525Z,-16.60
2023-01-10T19:24:23.683Z,-16.60
2023-01-10T19:29:49.112Z,-16.57
2023-01-10T19:35:11.426Z,-16.60
2023-01-10T19:40:34.811Z,-16.50
2023-01-10T19:45:57.307Z,-16.40
2023-01-10T19:51:19.255Z,-16.42
2023-01-10T19:56:41.553Z,-16.38
2023-01-10T20:02:04.975Z,-16.33
2023-01-10T20:07:34.723Z,-16.33
2023-01-10T20:13:05.283Z,-16.36
2023-01-10T20:18:32.552Z,-16.40
2023-01-10T20:24:01.691Z,-16.48
2023-01-10T20:29:24.077Z,-16.59
2023-01-10T20:34:51.601Z,-16.41
2023-01-10T20:40:14.118Z,-16.37
2023-01-10T20:45:37.627Z,-16.23
2023-01-10T20:51:04.972Z,-16.27
2023-01-10T20:56:29.655Z,-16.01
2023-01-10T21:01:55.538Z,-16.13
2023-01-10T21:07:18.256Z,-15.96
2023-01-10T21:12:40.725Z,-15.94
2023-01-10T21:18:02.575Z,-15.85
2023-01-10T21:23:26.247Z,-15.82
2023-01-10T21:28:48.465Z,-15.54
2023-01-10T21:34:10.758Z,-15.47
2023-01-10T21:39:32.848Z,-15.40
2023-01-10T21:44:54.803Z,-15.38
2023-01-10T21:50:19.095Z,-15.29
2023-01-10T21:55:44.493Z,-15.25
2023-01-10T22:01:06.851Z,-15.41
2023-01-10T22:06:29.419Z,-15.27
2023-01-10T22:11:59.883Z,-15.17
2023-01-10T22:17:22.513Z,-15.30
2023-01-10T22:22:47.985Z,-15.19
2023-01-10T22:28:13.875Z,-15.25
2023-01-10T22:33:40.831Z,-15.16
2023-01-10T22:39:07.707Z,-15.16
2023-01-10T22:44:32.165Z,-15.19
2023-01-10T22:49:58.865Z,-15.15
2023-01-10T22:55:22.505Z,-15.04
2023-01-10T23:00:56.850Z,-15.01
2023-01-10T23:06:20.506Z,-14.98
2023-01-10T23:11:42.721Z,-14.82
2023-01-10T23:17:04.625Z,-14.80
2023-01-10T23:22:26.761Z,-14.79
2023-01-10T23:27:48.944Z,-14.83
2023-01-10T23:33:11.240Z,-14.84
2023-01-10T23:38:33.282Z,-14.92
2023-01-10T23:43:55.567Z,-14.81
2023-01-10T23:49:17.623Z,-14.85
2023-01-10T23:54:41.755Z,-14.77
